createdAt,value
2018-02-10T00:00:21.776Z,42.03
2018-02-10T00:05:24.472Z,41.10
2018-02-10T00:10:27.317Z,40.93
2018-02-10T00:15:29.930Z,41.03
2018-02-10T00:20:32.732Z,42.30
2018-02-10T00:25:35.328Z,42.03
2018-02-10T00:30:38.696Z,42.50
2018-02-10T00:35:41.399Z,43.23
2018-02-10T00:40:44.783Z,40.40
2018-02-10T00:45:47.403Z,42.80
2018-02-10T00:50:53.960Z,42.50
2018-02-10T00:55:56.661Z,42.83
2018-02-10T01:00:59.696Z,40.03
2018-02-10T01:06:03.152Z,41.83
2018-02-10T01:11:06.437Z,44.17
2018-02-10T01:16:09.237Z,44.27
2018-02-10T01:21:12.249Z,43.57
2018-02-10T01:26:14.848Z,42.07
2018-02-10T01:31:18.446Z,42.60
2018-02-10T01:36:21.860Z,41.13
2018-02-10T01:41:26.110Z,43.73
2018-02-10T01:46:28.776Z,44.73
2018-02-10T01:51:32.462Z,44.00
2018-02-10T01:56:35.109Z,45.50
2018-02-10T02:01:38.507Z,42.63
2018-02-10T02:06:41.127Z,46.53
2018-02-10T02:11:44.608Z,44.10
2018-02-10T02:16:47.241Z,43.93
2018-02-10T02:21:50.711Z,45.07
2018-02-10T02:26:53.349Z,46.40
2018-02-10T02:31:56.223Z,46.50
2018-02-10T02:36:58.826Z,45.23
2018-02-10T02:42:01.513Z,43.73
2018-02-10T02:47:04.137Z,46.87
2018-02-10T02:52:07.632Z,46.83
2018-02-10T02:57:10.277Z,43.30
2018-02-10T03:02:13.615Z,45.13
2018-02-10T03:07:17.014Z,49.00
2018-02-10T03:12:20.682Z,46.07
2018-02-10T03:17:23.328Z,48.30
2018-02-10T03:22:26.133Z,49.33
2018-02-10T03:27:28.762Z,51.10
2018-02-10T03:32:31.636Z,51.17
2018-02-10T03:37:34.275Z,52.37
2018-02-10T03:42:37.827Z,51.87
2018-02-10T03:47:40.480Z,52.13
2018-02-10T03:52:43.878Z,51.40
2018-02-10T03:57:46.506Z,54.43
2018-02-10T04:02:50.095Z,55.70
2018-02-10T04:07:52.720Z,52.77
2018-02-10T04:12:55.953Z,51.40
2018-02-10T04:17:58.661Z,50.83
2018-02-10T04:23:01.705Z,49.23
2018-02-10T04:28:04.542Z,49.17
2018-02-10T04:33:07.289Z,49.57
2018-02-10T04:38:10.005Z,49.70
2018-02-10T04:43:12.966Z,49.80
2018-02-10T04:48:15.701Z,48.70
2018-02-10T04:53:19.873Z,52.10
2018-02-10T04:58:23.409Z,52.67
2018-02-10T05:03:26.772Z,52.07
2018-02-10T05:08:29.462Z,52.00
2018-02-10T05:13:34.509Z,49.80
2018-02-10T05:18:37.189Z,49.37
2018-02-10T05:23:40.254Z,50.70
2018-02-10T05:28:44.530Z,47.17
2018-02-10T05:33:48.177Z,50.63
2018-02-10T05:38:51.160Z,50.57
2018-02-10T05:43:54.666Z,51.13
2018-02-10T05:48:58.031Z,52.77
2018-02-10T05:54:00.786Z,47.43
2018-02-10T05:59:04.189Z,47.20
2018-02-10T06:04:07.743Z,46.33
2018-02-10T06:09:10.351Z,48.60
2018-02-10T06:14:13.734Z,43.50
2018-02-10T06:19:17.094Z,45.63
2018-02-10T06:24:19.887Z,44.57
2018-02-10T06:29:22.524Z,46.47
2018-02-10T06:34:25.883Z,45.83
2018-02-10T06:39:28.529Z,45.23
2018-02-10T06:44:32.099Z,45.13
2018-02-10T06:49:34.748Z,44.37
2018-02-10T06:54:37.414Z,48.03
2018-02-10T06:59:40.068Z,45.23
2018-02-10T07:04:43.463Z,45.77
2018-02-10T07:09:46.084Z,44.63
2018-02-10T07:14:50.044Z,44.67
2018-02-10T07:19:52.648Z,43.70
2018-02-10T07:24:56.147Z,44.13
2018-02-10T07:29:59.566Z,42.20
2018-02-10T07:35:03.084Z,44.20
2018-02-10T07:40:06.606Z,47.37
2018-02-10T07:45:10.538Z,44.33
2018-02-10T07:50:13.146Z,44.00
2018-02-10T07:55:15.938Z,44.70
2018-02-10T08:00:18.621Z,44.37
2018-02-10T08:05:22.493Z,42.77
2018-02-10T08:10:25.099Z,42.93
2018-02-10T08:15:27.756Z,43.07
2018-02-10T08:20:31.151Z,43.57
2018-02-10T08:25:34.154Z,39.83
2018-02-10T08:30:36.791Z,44.90
2018-02-10T08:35:40.287Z,43.03
2018-02-10T08:40:42.904Z,42.27
2018-02-10T08:45:47.235Z,41.80
2018-02-10T08:50:50.647Z,43.03
2018-02-10T08:55:54.405Z,43.90
2018-02-10T09:00:57.006Z,45.53
2018-02-10T09:05:59.775Z,44.70
2018-02-10T09:11:03.191Z,44.23
2018-02-10T09:16:08.424Z,50.37
2018-02-10T09:21:11.281Z,42.87
2018-02-10T09:26:15.002Z,45.67
2018-02-10T09:31:17.701Z,44.43
2018-02-10T09:36:22.157Z,47.40
2018-02-10T09:41:25.639Z,53.93
2018-02-10T09:46:29.404Z,43.50
2018-02-10T09:51:32.307Z,43.27
2018-02-10T09:56:35.763Z,41.70
2018-02-10T10:01:38.427Z,42.37
2018-02-10T10:06:41.934Z,44.60
2018-02-10T10:11:45.850Z,41.13
2018-02-10T10:16:50.312Z,40.47
2018-02-10T10:21:53.329Z,36.23
2018-02-10T10:26:56.631Z,33.40
2018-02-10T10:32:00.333Z,34.27
2018-02-10T10:37:03.822Z,33.03
2018-02-10T10:42:07.169Z,33.40
2018-02-10T10:47:11.301Z,31.40
2018-02-10T10:52:15.406Z,31.13
2018-02-10T10:57:19.617Z,31.87
2018-02-10T11:02:22.525Z,26.53
2018-02-10T11:07:26.823Z,27.70
2018-02-10T11:12:29.693Z,29.13
2018-02-10T11:17:32.936Z,27.33
2018-02-10T11:22:35.939Z,31.13
2018-02-10T11:27:39.461Z,29.10
2018-02-10T11:32:42.129Z,30.07
2018-02-10T11:37:45.475Z,35.47
2018-02-10T11:42:48.092Z,31.50
2018-02-10T11:47:51.060Z,22.23
2018-02-10T11:52:54.468Z,30.07
2018-02-10T11:57:58.028Z,25.93
2018-02-10T12:03:00.654Z,27.50
2018-02-10T12:08:04.111Z,28.03
2018-02-10T12:13:07.656Z,28.73
2018-02-10T12:18:11.040Z,23.97
2018-02-10T12:23:13.674Z,18.73
2018-02-10T12:28:17.020Z,26.40
2018-02-10T12:33:19.638Z,28.70
2018-02-10T12:38:22.939Z,29.00
2018-02-10T12:43:25.571Z,28.33
2018-02-10T12:48:35.508Z,28.10
2018-02-10T12:53:38.183Z,25.87
2018-02-10T12:58:41.684Z,26.13
2018-02-10T13:03:44.331Z,23.83
2018-02-10T13:08:47.702Z,25.90
2018-02-10T13:13:50.358Z,26.70
2018-02-10T13:18:54.721Z,32.33
2018-02-10T13:23:58.126Z,28.80
2018-02-10T13:29:00.907Z,24.50
2018-02-10T13:34:03.571Z,23.33
2018-02-10T13:39:06.943Z,24.40
2018-02-10T13:44:09.561Z,26.53
2018-02-10T13:49:13.718Z,18.33
2018-02-10T13:54:16.323Z,20.87
2018-02-10T13:59:19.567Z,21.60
2018-02-10T14:04:23.071Z,21.57
2018-02-10T14:09:25.747Z,22.57
2018-02-10T14:14:28.364Z,13.80
2018-02-10T14:19:31.345Z,23.03
2018-02-10T14:24:34.933Z,19.87
2018-02-10T14:29:38.478Z,22.30
2018-02-10T14:34:41.825Z,24.63
2018-02-10T14:39:44.699Z,23.10
2018-02-10T14:44:47.318Z,23.50
2018-02-10T14:49:50.898Z,23.27
2018-02-10T14:54:53.488Z,24.83
2018-02-10T14:59:56.956Z,22.83
2018-02-10T15:04:59.592Z,25.17
2018-02-10T15:10:02.978Z,27.10
2018-02-10T15:15:05.589Z,25.73
2018-02-10T15:20:08.935Z,26.17
2018-02-10T15:25:11.584Z,26.07
2018-02-10T15:30:27.233Z,23.77
2018-02-10T15:35:29.971Z,23.97
2018-02-10T15:40:32.739Z,23.80
2018-02-10T15:45:35.331Z,24.40
2018-02-10T15:50:38.387Z,25.50
2018-02-10T15:55:41.002Z,25.00
2018-02-10T16:00:44.466Z,24.87
2018-02-10T16:05:47.056Z,25.63
2018-02-10T16:10:50.507Z,23.20
2018-02-10T16:15:53.919Z,22.57
2018-02-10T16:20:58.253Z,23.20
2018-02-10T16:26:01.654Z,24.87
2018-02-10T16:31:04.744Z,23.93
2018-02-10T16:36:07.371Z,25.07
2018-02-10T16:41:10.090Z,26.80
2018-02-10T16:46:13.444Z,23.27
2018-02-10T16:51:16.922Z,22.93
2018-02-10T16:56:19.556Z,23.80
2018-02-10T17:01:23.122Z,24.30
2018-02-10T17:06:25.716Z,26.40
2018-02-10T17:11:29.062Z,32.70
2018-02-10T17:16:31.754Z,25.77
2018-02-10T17:21:35.132Z,26.10
2018-02-10T17:26:38.538Z,23.10
2018-02-10T17:31:42.014Z,25.93
2018-02-10T17:36:44.646Z,25.17
2018-02-10T17:41:47.532Z,26.50
2018-02-10T17:46:50.189Z,36.47
2018-02-10T17:51:54.142Z,30.37
2018-02-10T17:56:57.567Z,26.73
2018-02-10T18:02:00.898Z,26.43
2018-02-10T18:07:03.556Z,25.97
2018-02-10T18:12:07.836Z,27.30
2018-02-10T18:17:10.566Z,26.77
2018-02-10T18:22:14.008Z,27.13
2018-02-10T18:27:16.742Z,25.80
2018-02-10T18:32:20.889Z,26.97
2018-02-10T18:37:23.580Z,25.63
2018-02-10T18:42:27.171Z,25.53
2018-02-10T18:47:30.578Z,25.07
2018-02-10T18:52:33.955Z,25.07
2018-02-10T18:57:36.600Z,26.37
2018-02-10T19:02:40.328Z,24.50
2018-02-10T19:07:43.730Z,35.60
2018-02-10T19:12:46.634Z,25.80
2018-02-10T19:17:49.227Z,26.40
2018-02-10T19:22:52.817Z,25.93
2018-02-10T19:27:55.442Z,25.23
2018-02-10T19:32:58.902Z,25.23
2018-02-10T19:38:01.571Z,26.13
2018-02-10T19:43:05.199Z,24.97
2018-02-10T19:48:07.822Z,26.67
2018-02-10T19:53:11.224Z,24.83
2018-02-10T19:58:14.569Z,23.80
2018-02-10T20:03:17.350Z,26.13
2018-02-10T20:08:20.782Z,26.23
2018-02-10T20:13:23.780Z,25.03
2018-02-10T20:18:26.372Z,24.43
2018-02-10T20:23:29.786Z,26.67
2018-02-10T20:28:33.397Z,24.90
2018-02-10T20:33:37.422Z,24.80
2018-02-10T20:38:41.113Z,21.97
2018-02-10T20:43:44.326Z,22.83
2018-02-10T20:48:47.246Z,21.80
2018-02-10T20:53:50.092Z,21.57
2018-02-10T20:58:53.525Z,20.60
2018-02-10T21:03:57.653Z,21.83
2018-02-10T21:09:00.315Z,21.67
2018-02-10T21:14:03.284Z,22.17
2018-02-10T21:19:06.050Z,23.20
2018-02-10T21:24:09.063Z,22.13
2018-02-10T21:29:11.793Z,22.33
2018-02-10T21:34:15.113Z,22.80
2018-02-10T21:39:17.809Z,21.30
2018-02-10T21:44:21.024Z,22.77
2018-02-10T21:49:23.692Z,21.00
2018-02-10T21:54:26.968Z,24.77
2018-02-10T21:59:29.857Z,22.43
2018-02-10T22:04:33.225Z,23.43
2018-02-10T22:09:35.928Z,22.50
2018-02-10T22:14:39.299Z,22.50
2018-02-10T22:19:41.946Z,24.27
2018-02-10T22:24:44.749Z,22.37
2018-02-10T22:29:47.486Z,24.27
2018-02-10T22:34:50.344Z,20.70
2018-02-10T22:39:53.150Z,20.63
2018-02-10T22:44:56.940Z,23.27
2018-02-10T22:49:59.979Z,23.47
2018-02-10T22:55:02.987Z,22.87
2018-02-10T23:00:05.694Z,23.03
2018-02-10T23:05:09.995Z,22.20
2018-02-10T23:10:12.727Z,23.33
2018-02-10T23:15:15.362Z,23.93
2018-02-10T23:20:18.034Z,23.30
2018-02-10T23:25:21.506Z,24.13
2018-02-10T23:30:24.151Z,21.97
2018-02-10T23:35:34.706Z,21.07
2018-02-10T23:40:37.431Z,23.00
2018-02-10T23:45:40.630Z,24.90
2018-02-10T23:50:43.290Z,24.47
2018-02-10T23:55:46.420Z,23.87
